createdAt,value
2018-12-09T00:00:31.672Z,43.07
2018-12-09T00:01:31.729Z,42.97
2018-12-09T00:03:24.712Z,43.26
2018-12-09T00:04:24.762Z,43.07
2018-12-09T00:06:18.248Z,43.07
2018-12-09T00:07:18.301Z,43.26
2018-12-09T00:09:11.285Z,43.07
2018-12-09T00:10:11.335Z,43.19
2018-12-09T00:12:04.319Z,42.60
2018-12-09T00:13:04.366Z,42.69
2018-12-09T00:14:57.345Z,43.16
2018-12-09T00:15:57.400Z,43.16
2018-12-09T00:17:50.392Z,42.88
2018-12-09T00:18:50.437Z,42.69
2018-12-09T00:20:43.414Z,42.60
2018-12-09T00:21:43.471Z,42.02
2018-12-09T00:23:36.454Z,42.12
2018-12-09T00:24:36.502Z,42.31
2018-12-09T00:26:29.481Z,42.31
2018-12-09T00:27:29.539Z,42.31
2018-12-09T00:29:22.523Z,42.80
2018-12-09T00:30:22.574Z,42.61
2018-12-09T00:32:15.564Z,42.99
2018-12-09T00:33:15.609Z,42.99
2018-12-09T00:35:08.585Z,42.80
2018-12-09T00:36:08.642Z,42.52
2018-12-09T00:38:01.631Z,42.33
2018-12-09T00:39:01.676Z,42.50
2018-12-09T00:40:54.658Z,42.12
2018-12-09T00:41:54.716Z,42.52
2018-12-09T00:43:47.703Z,42.50
2018-12-09T00:44:47.754Z,42.50
2018-12-09T00:46:40.726Z,42.90
2018-12-09T00:47:40.785Z,43.19
2018-12-09T00:49:33.773Z,43.28
2018-12-09T00:50:33.819Z,43.83
2018-12-09T00:52:26.813Z,44.42
2018-12-09T00:53:26.859Z,44.12
2018-12-09T00:55:19.841Z,44.31
2018-12-09T00:56:19.896Z,44.21
2018-12-09T00:58:12.897Z,44.12
2018-12-09T00:59:12.932Z,44.40
2018-12-09T01:01:05.912Z,44.40
2018-12-09T01:02:05.971Z,44.40
2018-12-09T01:03:58.951Z,44.40
2018-12-09T01:04:59.005Z,44.49
2018-12-09T01:06:51.986Z,44.49
2018-12-09T01:07:52.042Z,44.12
2018-12-09T01:09:45.033Z,44.31
2018-12-09T01:10:45.080Z,44.12
2018-12-09T01:12:38.067Z,44.21
2018-12-09T01:13:38.116Z,44.59
2018-12-09T01:15:31.089Z,44.59
2018-12-09T01:16:31.147Z,44.68
2018-12-09T01:18:24.134Z,44.59
2018-12-09T01:19:24.183Z,44.49
2018-12-09T01:21:17.158Z,44.31
2018-12-09T01:22:17.216Z,44.59
2018-12-09T01:24:10.198Z,44.90
2018-12-09T01:25:10.249Z,44.68
2018-12-09T01:27:03.225Z,44.31
2018-12-09T01:28:03.281Z,44.42
2018-12-09T01:29:56.275Z,44.42
2018-12-09T01:30:56.314Z,44.42
2018-12-09T01:32:49.307Z,44.80
2018-12-09T01:33:49.355Z,44.80
2018-12-09T01:35:42.347Z,44.71
2018-12-09T01:36:42.401Z,44.90
2018-12-09T01:38:35.392Z,44.52
2018-12-09T01:39:35.436Z,44.90
2018-12-09T01:41:28.412Z,44.61
2018-12-09T01:42:28.468Z,44.90
2018-12-09T01:44:21.452Z,44.80
2018-12-09T01:45:21.501Z,44.80
2018-12-09T01:47:14.492Z,46.04
2018-12-09T01:48:14.558Z,46.33
2018-12-09T01:50:07.534Z,46.70
2018-12-09T01:51:07.579Z,47.56
2018-12-09T01:53:00.568Z,47.75
2018-12-09T01:54:00.621Z,47.75
2018-12-09T01:55:53.601Z,48.13
2018-12-09T01:56:53.655Z,48.03
2018-12-09T01:58:46.646Z,47.66
2018-12-09T01:59:46.691Z,47.56
2018-12-09T02:01:39.780Z,47.09
2018-12-09T02:02:39.724Z,47.85
2018-12-09T02:04:32.715Z,47.47
2018-12-09T02:05:32.760Z,47.47
2018-12-09T02:07:25.738Z,47.56
2018-12-09T02:08:25.795Z,47.09
2018-12-09T02:10:18.778Z,46.89
2018-12-09T02:11:18.828Z,46.80
2018-12-09T02:13:11.810Z,46.23
2018-12-09T02:14:11.863Z,46.23
2018-12-09T02:16:04.839Z,46.51
2018-12-09T02:17:04.894Z,46.04
2018-12-09T02:18:57.877Z,46.14
2018-12-09T02:19:57.927Z,46.42
2018-12-09T02:21:50.904Z,46.14
2018-12-09T02:22:50.982Z,45.66
2018-12-09T02:24:43.950Z,46.04
2018-12-09T02:25:44.000Z,45.85
2018-12-09T02:27:36.975Z,45.09
2018-12-09T02:28:37.033Z,45.66
2018-12-09T02:30:30.022Z,46.14
2018-12-09T02:31:30.061Z,46.33
2018-12-09T02:33:23.061Z,45.95
2018-12-09T02:34:23.105Z,45.95
2018-12-09T02:36:16.082Z,46.23
2018-12-09T02:37:16.139Z,45.95
2018-12-09T02:39:09.128Z,45.47
2018-12-09T02:40:09.178Z,46.23
2018-12-09T02:42:02.709Z,46.04
2018-12-09T02:43:02.711Z,46.14
2018-12-09T02:44:55.694Z,45.56
2018-12-09T02:45:55.743Z,46.04
2018-12-09T02:47:48.724Z,46.25
2018-12-09T02:48:48.783Z,46.54
2018-12-09T02:50:41.766Z,46.54
2018-12-09T02:51:41.813Z,46.44
2018-12-09T02:53:34.803Z,45.87
2018-12-09T02:54:34.853Z,45.59
2018-12-09T02:56:27.830Z,45.21
2018-12-09T02:57:27.888Z,45.21
2018-12-09T02:59:20.877Z,44.52
2018-12-09T03:00:20.926Z,44.80
2018-12-09T03:02:13.902Z,44.13
2018-12-09T03:03:13.960Z,44.13
2018-12-09T03:05:06.953Z,43.85
2018-12-09T03:06:06.992Z,43.66
2018-12-09T03:07:59.970Z,43.19
2018-12-09T03:09:00.026Z,43.09
2018-12-09T03:10:53.020Z,43.28
2018-12-09T03:11:53.068Z,43.09
2018-12-09T03:13:46.053Z,42.71
2018-12-09T03:14:46.104Z,42.99
2018-12-09T03:16:39.078Z,42.80
2018-12-09T03:17:39.133Z,42.90
2018-12-09T03:19:32.116Z,42.80
2018-12-09T03:20:32.166Z,42.99
2018-12-09T03:22:25.145Z,43.47
2018-12-09T03:23:25.200Z,43.57
2018-12-09T03:25:18.184Z,43.66
2018-12-09T03:26:18.235Z,43.76
2018-12-09T03:28:11.212Z,43.38
2018-12-09T03:29:11.269Z,43.47
2018-12-09T03:31:04.260Z,43.38
2018-12-09T03:32:04.305Z,43.38
2018-12-09T03:33:57.288Z,43.38
2018-12-09T03:34:57.338Z,43.47
2018-12-09T03:36:50.313Z,43.19
2018-12-09T03:37:50.372Z,43.09
2018-12-09T03:39:43.392Z,42.99
2018-12-09T03:40:43.406Z,42.99
2018-12-09T03:42:36.382Z,43.09
2018-12-09T03:43:36.438Z,43.47
2018-12-09T03:45:29.422Z,44.13
2018-12-09T03:46:29.472Z,43.76
2018-12-09T03:48:22.447Z,43.66
2018-12-09T03:49:22.506Z,43.38
2018-12-09T03:51:15.488Z,43.09
2018-12-09T03:52:15.538Z,43.19
2018-12-09T03:54:08.521Z,42.90
2018-12-09T03:55:08.572Z,43.09
2018-12-09T03:57:01.553Z,43.47
2018-12-09T03:58:01.607Z,43.47
2018-12-09T03:59:54.593Z,43.66
2018-12-09T04:00:54.640Z,43.66
2018-12-09T04:02:47.619Z,43.38
2018-12-09T04:03:47.676Z,43.66
2018-12-09T04:05:41.167Z,43.38
2018-12-09T04:06:41.217Z,43.38
2018-12-09T04:08:34.194Z,43.28
2018-12-09T04:09:34.250Z,43.47
2018-12-09T04:11:27.237Z,43.47
2018-12-09T04:12:27.282Z,43.38
2018-12-09T04:14:20.283Z,43.28
2018-12-09T04:15:20.318Z,43.28
2018-12-09T04:17:13.295Z,44.04
2018-12-09T04:18:13.355Z,44.23
2018-12-09T04:20:06.334Z,44.42
2018-12-09T04:21:06.387Z,45.09
2018-12-09T04:22:59.377Z,45.75
2018-12-09T04:23:59.426Z,45.75
2018-12-09T04:25:52.417Z,46.23
2018-12-09T04:26:52.463Z,46.33
2018-12-09T04:28:45.442Z,46.99
2018-12-09T04:29:45.498Z,46.51
2018-12-09T04:31:38.479Z,46.80
2018-12-09T04:32:38.531Z,46.80
2018-12-09T04:34:31.513Z,47.09
2018-12-09T04:35:31.564Z,48.71
2018-12-09T04:37:24.545Z,48.13
2018-12-09T04:38:24.602Z,47.56
2018-12-09T04:40:17.581Z,47.09
2018-12-09T04:41:17.633Z,46.61
2018-12-09T04:43:10.616Z,46.89
2018-12-09T04:44:10.665Z,46.70
2018-12-09T04:46:03.652Z,46.23
2018-12-09T04:47:03.708Z,46.04
2018-12-09T04:48:56.685Z,45.47
2018-12-09T04:49:56.737Z,46.14
2018-12-09T04:51:49.718Z,46.04
2018-12-09T04:52:49.769Z,46.14
2018-12-09T04:54:42.758Z,45.75
2018-12-09T04:55:42.805Z,45.00
2018-12-09T04:57:35.785Z,44.80
2018-12-09T04:58:35.845Z,44.61
2018-12-09T05:00:28.823Z,44.71
2018-12-09T05:01:28.875Z,44.52
2018-12-09T05:03:21.849Z,45.18
2018-12-09T05:04:21.904Z,44.71
2018-12-09T05:06:15.396Z,45.28
2018-12-09T05:07:15.457Z,45.66
2018-12-09T05:09:08.424Z,46.89
2018-12-09T05:10:08.480Z,46.51
2018-12-09T05:12:01.462Z,48.06
2018-12-09T05:13:01.514Z,47.94
2018-12-09T05:14:54.505Z,47.78
2018-12-09T05:15:54.555Z,47.49
2018-12-09T05:17:47.531Z,47.68
2018-12-09T05:18:47.587Z,47.37
2018-12-09T05:20:40.570Z,47.11
2018-12-09T05:21:40.620Z,47.47
2018-12-09T05:23:33.598Z,46.92
2018-12-09T05:24:33.735Z,46.80
2018-12-09T05:26:26.647Z,46.54
2018-12-09T05:27:26.693Z,46.42
2018-12-09T05:29:19.672Z,46.23
2018-12-09T05:30:19.729Z,46.04
2018-12-09T05:32:12.718Z,45.28
2018-12-09T05:33:12.769Z,45.09
2018-12-09T05:35:05.752Z,44.90
2018-12-09T05:36:05.804Z,44.61
2018-12-09T05:37:58.778Z,44.42
2018-12-09T05:38:58.838Z,44.42
2018-12-09T05:40:51.820Z,44.23
2018-12-09T05:41:51.869Z,44.52
2018-12-09T05:43:44.850Z,44.52
2018-12-09T05:44:44.907Z,44.71
2018-12-09T05:46:37.910Z,44.42
2018-12-09T05:47:37.963Z,44.42
2018-12-09T05:49:30.943Z,44.52
2018-12-09T05:50:30.998Z,44.13
2018-12-09T05:52:23.983Z,44.23
2018-12-09T05:53:24.032Z,44.13
2018-12-09T05:55:17.526Z,43.76
2018-12-09T05:56:17.568Z,44.42
2018-12-09T05:58:10.543Z,44.04
2018-12-09T05:59:10.601Z,43.66
2018-12-09T06:01:03.599Z,43.28
2018-12-09T06:02:03.648Z,43.57
2018-12-09T06:03:56.615Z,43.66
2018-12-09T06:04:56.671Z,43.66
2018-12-09T06:06:49.661Z,43.85
2018-12-09T06:07:49.709Z,44.23
2018-12-09T06:09:42.684Z,43.76
2018-12-09T06:10:42.740Z,43.95
2018-12-09T06:12:35.725Z,43.85
2018-12-09T06:13:35.775Z,44.04
2018-12-09T06:15:28.771Z,43.85
2018-12-09T06:16:28.810Z,43.95
2018-12-09T06:18:21.788Z,43.76
2018-12-09T06:19:21.843Z,44.33
2018-12-09T06:21:14.830Z,43.95
2018-12-09T06:22:14.881Z,44.52
2018-12-09T06:24:07.856Z,44.71
2018-12-09T06:25:08.037Z,45.09
2018-12-09T06:27:00.898Z,45.37
2018-12-09T06:28:00.949Z,45.37
2018-12-09T06:29:53.926Z,46.23
2018-12-09T06:30:53.993Z,46.14
2018-12-09T06:32:46.983Z,46.51
2018-12-09T06:33:47.035Z,46.70
2018-12-09T06:35:40.018Z,46.99
2018-12-09T06:36:40.070Z,46.80
2018-12-09T06:38:33.046Z,47.18
2018-12-09T06:39:33.102Z,47.85
2018-12-09T06:41:26.093Z,48.03
2018-12-09T06:42:26.141Z,46.89
2018-12-09T06:44:19.119Z,46.70
2018-12-09T06:45:19.176Z,46.70
2018-12-09T06:47:12.157Z,46.04
2018-12-09T06:48:12.207Z,46.51
2018-12-09T06:50:05.187Z,46.42
2018-12-09T06:51:05.243Z,46.33
2018-12-09T06:52:58.234Z,45.95
2018-12-09T06:53:58.278Z,45.66
2018-12-09T06:55:51.266Z,44.61
2018-12-09T06:56:51.317Z,44.23
2018-12-09T06:58:44.292Z,43.66
2018-12-09T06:59:44.349Z,43.47
2018-12-09T07:01:37.329Z,43.57
2018-12-09T07:02:37.381Z,43.47
2018-12-09T07:04:30.371Z,43.09
2018-12-09T07:05:30.416Z,42.99
2018-12-09T07:07:23.398Z,42.99
2018-12-09T07:08:23.450Z,42.99
2018-12-09T07:10:16.434Z,43.38
2018-12-09T07:11:16.510Z,43.76
2018-12-09T07:13:09.470Z,43.57
2018-12-09T07:14:09.524Z,44.33
2018-12-09T07:16:02.505Z,44.13
2018-12-09T07:17:02.554Z,44.13
2018-12-09T07:18:55.537Z,44.52
2018-12-09T07:19:55.594Z,44.23
2018-12-09T07:21:48.578Z,43.57
2018-12-09T07:22:48.628Z,43.38
2018-12-09T07:24:41.607Z,43.57
2018-12-09T07:25:41.664Z,43.28
2018-12-09T07:27:34.728Z,43.28
2018-12-09T07:28:34.696Z,42.80
2018-12-09T07:30:27.683Z,42.52
2018-12-09T07:31:27.753Z,43.19
2018-12-09T07:33:20.721Z,43.28
2018-12-09T07:34:20.768Z,43.38
2018-12-09T07:36:13.754Z,43.57
2018-12-09T07:37:13.804Z,43.28
2018-12-09T07:39:06.783Z,43.38
2018-12-09T07:40:06.842Z,43.47
2018-12-09T07:41:59.828Z,43.76
2018-12-09T07:42:59.882Z,43.76
2018-12-09T07:44:52.854Z,44.61
2018-12-09T07:45:52.906Z,44.33
2018-12-09T07:47:45.891Z,44.42
2018-12-09T07:48:45.941Z,44.13
2018-12-09T07:50:38.917Z,44.42
2018-12-09T07:51:38.979Z,44.61
2018-12-09T07:53:31.956Z,44.52
2018-12-09T07:54:32.005Z,44.71
2018-12-09T07:56:24.997Z,45.00
2018-12-09T07:57:25.045Z,45.37
2018-12-09T07:59:18.031Z,44.71
2018-12-09T08:00:18.090Z,44.33
2018-12-09T08:02:11.078Z,44.52
2018-12-09T08:03:11.133Z,44.33
2018-12-09T08:05:04.113Z,43.66
2018-12-09T08:06:04.164Z,43.38
2018-12-09T08:07:57.146Z,43.76
2018-12-09T08:08:57.197Z,44.42
2018-12-09T08:10:50.179Z,45.66
2018-12-09T08:11:50.235Z,46.23
2018-12-09T08:13:43.217Z,46.97
2018-12-09T08:14:43.269Z,47.16
2018-12-09T08:16:36.258Z,47.25
2018-12-09T08:17:36.311Z,48.11
2018-12-09T08:19:29.285Z,47.82
2018-12-09T08:20:29.342Z,48.11
2018-12-09T08:22:22.349Z,48.11
2018-12-09T08:23:22.377Z,47.16
2018-12-09T08:25:15.355Z,46.97
2018-12-09T08:26:15.419Z,46.49
2018-12-09T08:28:08.395Z,45.35
2018-12-09T08:29:08.443Z,45.61
2018-12-09T08:31:01.424Z,46.19
2018-12-09T08:32:01.477Z,46.09
2018-12-09T08:33:54.458Z,45.04
2018-12-09T08:34:54.508Z,44.67
2018-12-09T08:36:47.492Z,45.23
2018-12-09T08:37:47.543Z,45.04
2018-12-09T08:39:40.548Z,45.71
2018-12-09T08:40:40.577Z,46.09
2018-12-09T08:42:33.568Z,46.37
2018-12-09T08:43:33.615Z,46.37
2018-12-09T08:45:26.591Z,45.04
2018-12-09T08:46:26.651Z,45.33
2018-12-09T08:48:19.629Z,45.23
2018-12-09T08:49:19.679Z,45.04
2018-12-09T08:51:12.657Z,45.23
2018-12-09T08:52:12.717Z,45.23
2018-12-09T08:54:05.700Z,45.71
2018-12-09T08:55:05.752Z,45.42
2018-12-09T08:56:58.735Z,45.23
2018-12-09T08:57:58.788Z,45.04
2018-12-09T08:59:51.765Z,45.14
2018-12-09T09:00:51.818Z,45.71
2018-12-09T09:02:44.815Z,46.47
2018-12-09T09:03:44.850Z,46.75
2018-12-09T09:05:38.337Z,46.00
2018-12-09T09:06:38.391Z,46.28
2018-12-09T09:08:31.372Z,46.47
2018-12-09T09:09:31.423Z,47.23
2018-12-09T09:11:24.400Z,47.99
2018-12-09T09:12:24.459Z,47.23
2018-12-09T09:14:17.439Z,46.37
2018-12-09T09:15:17.489Z,46.37
2018-12-09T09:17:10.472Z,46.94
2018-12-09T09:18:10.520Z,46.85
2018-12-09T09:20:03.499Z,46.66
2018-12-09T09:21:03.555Z,46.47
2018-12-09T09:22:56.540Z,45.80
2018-12-09T09:23:56.586Z,46.09
2018-12-09T09:25:49.566Z,46.09
2018-12-09T09:26:49.623Z,45.33
2018-12-09T09:28:43.013Z,45.14
2018-12-09T09:29:42.656Z,45.71
2018-12-09T09:31:35.638Z,46.19
2018-12-09T09:32:35.686Z,46.28
2018-12-09T09:34:28.673Z,46.47
2018-12-09T09:35:28.722Z,46.28
2018-12-09T09:37:21.706Z,46.19
2018-12-09T09:38:21.761Z,45.90
2018-12-09T09:40:14.734Z,46.00
2018-12-09T09:41:14.793Z,46.19
2018-12-09T09:43:07.774Z,45.52
2018-12-09T09:44:07.824Z,45.23
2018-12-09T09:46:00.799Z,44.95
2018-12-09T09:47:00.857Z,44.57
2018-12-09T09:48:53.840Z,44.38
2018-12-09T09:49:53.892Z,44.19
2018-12-09T09:51:46.880Z,44.38
2018-12-09T09:52:46.938Z,44.38
2018-12-09T09:54:39.919Z,44.38
2018-12-09T09:55:41.630Z,44.38
2018-12-09T09:57:32.952Z,44.19
2018-12-09T09:58:33.003Z,44.19
2018-12-09T10:00:26.015Z,44.38
2018-12-09T10:01:26.039Z,44.47
2018-12-09T10:03:25.667Z,44.95
2018-12-09T10:04:19.071Z,44.85
2018-12-09T10:06:12.560Z,45.14
2018-12-09T10:07:12.612Z,45.61
2018-12-09T10:09:05.601Z,45.80
2018-12-09T10:10:05.652Z,46.09
2018-12-09T10:11:58.631Z,46.19
2018-12-09T10:12:58.690Z,46.37
2018-12-09T10:14:51.668Z,46.47
2018-12-09T10:15:51.718Z,46.85
2018-12-09T10:17:44.708Z,46.75
2018-12-09T10:18:44.755Z,47.23
2018-12-09T10:20:37.735Z,47.04
2018-12-09T10:21:37.793Z,47.13
2018-12-09T10:23:30.780Z,47.42
2018-12-09T10:24:30.827Z,47.52
2018-12-09T10:26:23.808Z,47.42
2018-12-09T10:27:23.859Z,47.13
2018-12-09T10:29:16.862Z,47.33
2018-12-09T10:30:16.915Z,47.34
2018-12-09T10:32:09.892Z,47.44
2018-12-09T10:33:09.948Z,46.94
2018-12-09T10:35:02.938Z,47.61
2018-12-09T10:36:02.987Z,47.99
2018-12-09T10:37:55.971Z,47.04
2018-12-09T10:38:56.021Z,47.04
2018-12-09T10:40:49.000Z,46.56
2018-12-09T10:41:49.060Z,46.85
2018-12-09T10:43:42.040Z,46.66
2018-12-09T10:44:42.098Z,46.66
2018-12-09T10:46:35.066Z,47.42
2018-12-09T10:47:35.124Z,47.23
2018-12-09T10:49:28.107Z,47.52
2018-12-09T10:50:28.157Z,47.23
2018-12-09T10:52:21.136Z,47.06
2018-12-09T10:53:21.191Z,46.85
2018-12-09T10:55:14.189Z,47.06
2018-12-09T10:56:14.224Z,47.44
2018-12-09T10:58:07.217Z,47.42
2018-12-09T10:59:07.257Z,47.92
2018-12-09T11:01:00.238Z,48.30
2018-12-09T11:02:00.292Z,48.49
2018-12-09T11:03:53.277Z,48.77
2018-12-09T11:04:53.328Z,48.68
2018-12-09T11:06:46.303Z,48.58
2018-12-09T11:07:46.363Z,49.73
2018-12-09T11:09:39.345Z,48.21
2018-12-09T11:10:39.395Z,47.73
2018-12-09T11:12:32.375Z,48.30
2018-12-09T11:13:32.432Z,47.54
2018-12-09T11:15:25.418Z,48.30
2018-12-09T11:16:25.464Z,48.30
2018-12-09T11:18:18.454Z,47.44
2018-12-09T11:19:18.500Z,46.97
2018-12-09T11:21:11.480Z,46.88
2018-12-09T11:22:11.535Z,46.78
2018-12-09T11:24:04.518Z,46.59
2018-12-09T11:25:04.570Z,46.78
2018-12-09T11:26:57.546Z,47.73
2018-12-09T11:27:57.603Z,47.73
2018-12-09T11:29:50.586Z,46.88
2018-12-09T11:30:50.637Z,47.34
2018-12-09T11:32:43.617Z,47.82
2018-12-09T11:33:43.670Z,47.25
2018-12-09T11:35:36.654Z,46.01
2018-12-09T11:36:36.704Z,46.01
2018-12-09T11:38:29.688Z,46.49
2018-12-09T11:39:29.739Z,46.20
2018-12-09T11:41:22.715Z,46.78
2018-12-09T11:42:22.772Z,46.49
2018-12-09T11:44:15.758Z,45.45
2018-12-09T11:45:15.808Z,45.83
2018-12-09T11:47:08.786Z,45.64
2018-12-09T11:48:08.841Z,45.45
2018-12-09T11:50:01.825Z,46.01
2018-12-09T11:51:01.875Z,46.11
2018-12-09T11:52:54.856Z,46.11
2018-12-09T11:53:54.910Z,46.14
2018-12-09T11:55:47.898Z,45.92
2018-12-09T11:56:47.944Z,46.23
2018-12-09T11:58:40.931Z,46.33
2018-12-09T11:59:40.979Z,45.47
2018-12-09T12:01:33.961Z,46.61
2018-12-09T12:02:34.017Z,46.23
2018-12-09T12:04:26.999Z,45.75
2018-12-09T12:05:27.052Z,45.85
2018-12-09T12:07:20.031Z,45.56
2018-12-09T12:08:20.087Z,45.95
2018-12-09T12:10:13.071Z,44.90
2018-12-09T12:11:13.124Z,44.80
2018-12-09T12:13:06.100Z,44.71
2018-12-09T12:14:06.159Z,44.71
2018-12-09T12:15:59.148Z,46.04
2018-12-09T12:16:59.194Z,46.42
2018-12-09T12:18:52.179Z,45.66
2018-12-09T12:19:52.232Z,45.56
2018-12-09T12:21:45.206Z,45.75
2018-12-09T12:22:45.266Z,45.66
2018-12-09T12:24:38.246Z,46.33
2018-12-09T12:25:38.297Z,46.51
2018-12-09T12:27:31.275Z,46.23
2018-12-09T12:28:31.330Z,45.95
2018-12-09T12:30:26.178Z,46.42
2018-12-09T12:31:24.364Z,46.89
2018-12-09T12:33:17.351Z,46.51
2018-12-09T12:34:17.400Z,46.42
2018-12-09T12:36:10.386Z,46.42
2018-12-09T12:37:10.441Z,46.70
2018-12-09T12:39:03.420Z,47.56
2018-12-09T12:40:03.472Z,47.85
2018-12-09T12:41:56.465Z,47.75
2018-12-09T12:42:56.503Z,48.54
2018-12-09T12:44:49.493Z,48.25
2018-12-09T12:45:49.541Z,48.63
2018-12-09T12:47:42.523Z,49.01
2018-12-09T12:48:42.580Z,49.77
2018-12-09T12:50:35.571Z,48.25
2018-12-09T12:51:35.621Z,47.97
2018-12-09T12:53:28.595Z,48.35
2018-12-09T12:54:28.653Z,48.06
2018-12-09T12:56:21.636Z,49.87
2018-12-09T12:57:21.687Z,49.58
2018-12-09T12:59:14.681Z,49.87
2018-12-09T13:00:14.734Z,49.49
2018-12-09T13:02:07.711Z,50.54
2018-12-09T13:03:07.767Z,50.54
2018-12-09T13:05:00.758Z,50.15
2018-12-09T13:06:00.805Z,50.54
2018-12-09T13:07:53.785Z,50.82
2018-12-09T13:08:53.841Z,51.10
2018-12-09T13:10:46.824Z,51.30
2018-12-09T13:11:46.874Z,51.49
2018-12-09T13:13:39.859Z,52.15
2018-12-09T13:14:39.921Z,52.72
2018-12-09T13:16:32.903Z,51.01
2018-12-09T13:17:32.952Z,51.10
2018-12-09T13:19:25.940Z,51.97
2018-12-09T13:20:25.988Z,52.06
2018-12-09T13:22:18.962Z,51.68
2018-12-09T13:23:19.021Z,52.25
2018-12-09T13:25:12.012Z,51.30
2018-12-09T13:26:12.063Z,50.35
2018-12-09T13:28:05.039Z,50.44
2018-12-09T13:29:05.099Z,50.06
2018-12-09T13:30:58.081Z,50.15
2018-12-09T13:31:58.136Z,50.06
2018-12-09T13:33:51.114Z,49.40
2018-12-09T13:34:51.170Z,50.15
2018-12-09T13:36:44.154Z,49.96
2018-12-09T13:37:44.204Z,50.06
2018-12-09T13:39:37.202Z,52.53
2018-12-09T13:40:37.252Z,52.15
2018-12-09T13:42:30.230Z,56.05
2018-12-09T13:43:30.287Z,55.77
2018-12-09T13:45:23.269Z,56.63
2018-12-09T13:46:23.323Z,57.51
2018-12-09T13:48:16.309Z,57.42
2018-12-09T13:49:16.354Z,58.25
2018-12-09T13:51:09.337Z,56.72
2018-12-09T13:52:09.391Z,58.08
2018-12-09T13:54:02.375Z,59.03
2018-12-09T13:55:02.425Z,57.99
2018-12-09T13:56:55.417Z,58.34
2018-12-09T13:57:55.467Z,57.51
2018-12-09T13:59:48.455Z,57.39
2018-12-09T14:00:48.505Z,55.87
2018-12-09T14:02:41.481Z,57.58
2018-12-09T14:03:41.540Z,56.15
2018-12-09T14:05:34.531Z,57.87
2018-12-09T14:06:34.580Z,56.82
2018-12-09T14:08:27.554Z,57.58
2018-12-09T14:09:27.613Z,57.67
2018-12-09T14:11:20.603Z,57.58
2018-12-09T14:12:20.655Z,55.87
2018-12-09T14:14:13.639Z,56.05
2018-12-09T14:15:13.692Z,57.01
2018-12-09T14:17:06.673Z,57.20
2018-12-09T14:18:06.723Z,59.48
2018-12-09T14:19:59.714Z,59.20
2018-12-09T14:20:59.756Z,58.15
2018-12-09T14:22:52.751Z,57.96
2018-12-09T14:23:52.792Z,58.72
2018-12-09T14:25:45.781Z,57.87
2018-12-09T14:26:45.834Z,58.34
2018-12-09T14:28:38.819Z,57.39
2018-12-09T14:29:38.877Z,57.67
2018-12-09T14:31:33.968Z,57.48
2018-12-09T14:32:31.911Z,57.67
2018-12-09T14:34:24.890Z,58.06
2018-12-09T14:35:24.946Z,56.15
2018-12-09T14:37:17.944Z,57.01
2018-12-09T14:38:17.992Z,57.20
2018-12-09T14:40:10.984Z,57.29
2018-12-09T14:41:11.029Z,56.63
2018-12-09T14:43:04.102Z,55.87
2018-12-09T14:44:04.091Z,55.96
2018-12-09T14:45:57.052Z,55.96
2018-12-09T14:46:57.101Z,56.24
2018-12-09T14:48:50.095Z,55.87
2018-12-09T14:49:50.137Z,54.63
2018-12-09T14:51:43.120Z,55.96
2018-12-09T14:52:43.173Z,55.01
2018-12-09T14:54:36.153Z,54.63
2018-12-09T14:55:36.205Z,55.77
2018-12-09T14:57:29.193Z,54.63
2018-12-09T14:58:29.244Z,54.82
2018-12-09T15:00:22.226Z,57.01
2018-12-09T15:01:22.292Z,57.77
2018-12-09T15:03:15.257Z,59.29
2018-12-09T15:04:15.308Z,59.48
2018-12-09T15:06:08.813Z,59.01
2018-12-09T15:07:08.852Z,60.34
2018-12-09T15:09:01.830Z,61.48
2018-12-09T15:10:08.594Z,60.15
2018-12-09T15:11:54.881Z,61.10
2018-12-09T15:12:54.930Z,61.19
2018-12-09T15:14:47.908Z,61.38
2018-12-09T15:15:47.965Z,61.00
2018-12-09T15:17:40.948Z,60.82
2018-12-09T15:18:40.999Z,61.19
2018-12-09T15:20:34.002Z,61.38
2018-12-09T15:21:34.033Z,61.86
2018-12-09T15:23:27.010Z,61.86
2018-12-09T15:24:27.068Z,62.15
2018-12-09T15:26:20.059Z,60.82
2018-12-09T15:27:20.103Z,61.29
2018-12-09T15:29:13.082Z,61.29
2018-12-09T15:30:13.142Z,61.96
2018-12-09T15:32:06.130Z,62.05
2018-12-09T15:33:06.173Z,61.38
2018-12-09T15:34:59.157Z,61.00
2018-12-09T15:35:59.213Z,60.72
2018-12-09T15:37:52.198Z,59.39
2018-12-09T15:38:52.249Z,60.34
2018-12-09T15:40:45.231Z,59.58
2018-12-09T15:41:45.292Z,58.72
2018-12-09T15:43:38.271Z,58.03
2018-12-09T15:44:38.323Z,57.74
2018-12-09T15:46:31.313Z,55.83
2018-12-09T15:47:31.412Z,56.60
2018-12-09T15:49:24.336Z,56.03
2018-12-09T15:50:24.392Z,55.74
2018-12-09T15:52:17.408Z,55.08
2018-12-09T15:53:17.440Z,55.93
2018-12-09T15:55:10.413Z,54.69
2018-12-09T15:56:10.472Z,55.27
2018-12-09T15:58:03.467Z,55.08
2018-12-09T15:59:03.516Z,54.98
2018-12-09T16:00:56.512Z,56.12
2018-12-09T16:01:56.553Z,56.12
2018-12-09T16:03:49.537Z,55.93
2018-12-09T16:04:49.588Z,56.03
2018-12-09T16:06:43.074Z,55.27
2018-12-09T16:07:43.129Z,55.27
2018-12-09T16:09:36.110Z,55.17
2018-12-09T16:10:36.162Z,55.08
2018-12-09T16:12:29.145Z,55.17
2018-12-09T16:13:29.195Z,55.27
2018-12-09T16:15:22.180Z,54.41
2018-12-09T16:16:22.238Z,54.41
2018-12-09T16:18:15.225Z,54.13
2018-12-09T16:19:15.272Z,54.03
2018-12-09T16:21:08.261Z,53.55
2018-12-09T16:22:08.306Z,53.65
2018-12-09T16:24:01.299Z,53.27
2018-12-09T16:25:01.348Z,52.98
2018-12-09T16:26:54.330Z,53.27
2018-12-09T16:27:54.382Z,53.36
2018-12-09T16:29:47.373Z,52.32
2018-12-09T16:30:47.418Z,52.13
2018-12-09T16:32:40.407Z,52.13
2018-12-09T16:33:40.459Z,51.75
2018-12-09T16:35:33.441Z,51.08
2018-12-09T16:36:33.501Z,52.03
2018-12-09T16:38:26.484Z,51.93
2018-12-09T16:39:26.535Z,52.80
2018-12-09T16:41:19.513Z,52.03
2018-12-09T16:42:19.571Z,52.70
2018-12-09T16:44:12.553Z,53.46
2018-12-09T16:45:12.600Z,53.75
2018-12-09T16:47:05.586Z,53.17
2018-12-09T16:48:05.639Z,53.36
2018-12-09T16:49:58.623Z,54.60
2018-12-09T16:50:58.675Z,54.60
2018-12-09T16:52:51.664Z,54.69
2018-12-09T16:53:51.710Z,54.32
2018-12-09T16:55:44.682Z,53.65
2018-12-09T16:56:44.743Z,53.55
2018-12-09T16:58:37.724Z,54.69
2018-12-09T16:59:37.778Z,55.08
2018-12-09T17:01:30.757Z,56.12
2018-12-09T17:02:30.810Z,55.93
2018-12-09T17:04:23.800Z,57.45
2018-12-09T17:05:23.849Z,57.17
2018-12-09T17:07:16.851Z,55.83
2018-12-09T17:08:16.923Z,55.93
2018-12-09T17:10:09.869Z,56.88
2018-12-09T17:11:09.919Z,56.22
2018-12-09T17:13:02.907Z,57.36
2018-12-09T17:14:02.956Z,57.74
2018-12-09T17:15:55.931Z,58.98
2018-12-09T17:16:56.007Z,57.65
2018-12-09T17:18:48.971Z,58.40
2018-12-09T17:19:49.024Z,58.40
2018-12-09T17:21:41.998Z,58.59
2018-12-09T17:22:42.053Z,58.31
2018-12-09T17:24:35.038Z,58.98
2018-12-09T17:25:35.092Z,59.83
2018-12-09T17:27:28.071Z,59.33
2018-12-09T17:28:28.122Z,59.17
2018-12-09T17:30:21.109Z,59.27
2018-12-09T17:31:21.205Z,59.99
2018-12-09T17:33:14.141Z,58.79
2018-12-09T17:34:14.192Z,59.05
2018-12-09T17:36:07.173Z,57.93
2018-12-09T17:37:07.232Z,58.22
2018-12-09T17:39:00.212Z,58.03
2018-12-09T17:40:00.265Z,56.88
2018-12-09T17:41:53.242Z,56.03
2018-12-09T17:42:53.297Z,55.83
2018-12-09T17:44:46.303Z,55.27
2018-12-09T17:45:46.333Z,54.32
2018-12-09T17:47:39.309Z,53.65
2018-12-09T17:48:39.365Z,53.27
2018-12-09T17:50:32.349Z,52.39
2018-12-09T17:51:32.400Z,51.82
2018-12-09T17:53:25.383Z,51.06
2018-12-09T17:54:25.439Z,50.96
2018-12-09T17:56:18.420Z,49.54
2018-12-09T17:57:18.466Z,49.63
2018-12-09T17:59:11.450Z,50.10
2018-12-09T18:00:11.501Z,50.10
2018-12-09T18:02:04.480Z,50.01
2018-12-09T18:03:04.533Z,49.63
2018-12-09T18:04:57.534Z,49.82
2018-12-09T18:05:57.582Z,49.73
2018-12-09T18:07:50.558Z,49.82
2018-12-09T18:08:50.618Z,49.82
2018-12-09T18:10:43.619Z,49.73
2018-12-09T18:11:43.669Z,50.20
2018-12-09T18:13:36.650Z,51.25
2018-12-09T18:14:36.699Z,51.08
2018-12-09T18:16:29.676Z,51.06
2018-12-09T18:17:29.732Z,50.39
2018-12-09T18:19:22.716Z,52.01
2018-12-09T18:20:22.769Z,54.48
2018-12-09T18:22:15.745Z,54.57
2018-12-09T18:23:15.797Z,55.65
2018-12-09T18:25:08.790Z,57.71
2018-12-09T18:26:08.840Z,59.33
2018-12-09T18:28:01.814Z,60.69
2018-12-09T18:29:01.869Z,62.65
2018-12-09T18:30:54.861Z,63.79
2018-12-09T18:31:54.914Z,63.89
2018-12-09T18:33:47.891Z,64.37